Time;durP1;ratioP1;P1;durP2;ratioP2;P2;SDS_P1;SDS_P2;PMS_P1;PMS_P2;Temp;Humidity;BMP_temperature;BMP_pressure;BME280_temperature;BME280_humidity;BME280_pressure;Samples;Min_cycle;Max_cycle;Signal;HPM_P1;HPM_P2
2021/12/25 00:00:09;;;;;;;3.67;3.38;;;7.10;99.90;;;;;;5092916;28;20055;-59
2021/12/25 00:02:35;;;;;;;3.78;3.22;;;7.20;99.90;;;;;;5092744;28;20024;-60
2021/12/25 00:05:01;;;;;;;4.22;3.83;;;7.10;99.90;;;;;;5092915;28;20032;-59
2021/12/25 00:07:27;;;;;;;3.25;2.95;;;7.10;99.90;;;;;;5092489;28;20104;-59
2021/12/25 00:09:53;;;;;;;3.25;2.95;;;7.10;99.90;;;;;;5092674;28;20028;-60
2021/12/25 00:12:19;;;;;;;3.95;3.50;;;7.10;99.90;;;;;;5091795;28;20024;-60
2021/12/25 00:14:44;;;;;;;3.90;3.60;;;7.10;99.90;;;;;;5092418;28;20144;-59
2021/12/25 00:17:12;;;;;;;6.78;3.70;;;7.00;99.90;;;;;;5092347;28;20016;-59
2021/12/25 00:19:37;;;;;;;3.38;2.83;;;7.00;99.90;;;;;;5092534;28;20432;-59
2021/12/25 00:22:03;;;;;;;4.38;2.63;;;7.00;99.90;;;;;;5092398;28;20032;-60
2021/12/25 00:24:29;;;;;;;2.95;2.75;;;7.00;99.90;;;;;;5092208;28;20016;-60
2021/12/25 00:34:47;;;;;;;2.30;2.20;;;7.20;99.90;;;;;;5092291;28;20448;-59
2021/12/25 00:37:14;;;;;;;2.40;2.20;;;7.30;99.90;;;;;;5091742;28;20111;-59
2021/12/25 00:39:40;;;;;;;3.67;3.38;;;7.30;99.90;;;;;;5091941;28;20096;-59
2021/12/25 00:42:06;;;;;;;3.20;3.00;;;7.20;99.90;;;;;;5091028;28;20418;-59
2021/12/25 00:44:33;;;;;;;3.40;2.63;;;7.20;99.90;;;;;;5091834;28;20020;-60
2021/12/25 00:47:00;;;;;;;2.17;2.08;;;7.20;99.90;;;;;;5091864;28;20020;-59
2021/12/25 00:49:26;;;;;;;2.70;2.50;;;7.20;99.90;;;;;;5091593;28;20074;-59
2021/12/25 00:51:52;;;;;;;2.65;2.45;;;7.30;99.90;;;;;;5091648;28;20490;-59
2021/12/25 00:54:18;;;;;;;2.90;2.65;;;7.30;99.90;;;;;;5091457;28;20046;-59
2021/12/25 00:56:44;;;;;;;2.47;2.28;;;7.30;99.90;;;;;;5091640;28;20091;-59
2021/12/25 00:59:10;;;;;;;2.42;2.33;;;7.30;99.90;;;;;;5091401;28;20016;-59
2021/12/25 01:01:36;;;;;;;4.25;2.60;;;7.30;99.90;;;;;;5091744;28;20030;-59
2021/12/25 01:04:03;;;;;;;2.38;2.17;;;7.20;99.90;;;;;;5091471;28;20042;-59
2021/12/25 01:06:29;;;;;;;2.88;2.67;;;7.30;99.90;;;;;;5072999;28;20023;-59
2021/12/25 01:08:55;;;;;;;3.10;2.90;;;7.20;99.90;;;;;;5091391;28;20050;-59
2021/12/25 01:11:23;;;;;;;2.75;2.55;;;7.20;99.90;;;;;;5091383;28;20031;-59
2021/12/25 01:13:56;;;;;;;2.85;2.65;;;7.30;99.90;;;;;;5091143;28;20016;-60
2021/12/25 01:29:51;;;;;;;2.65;2.45;;;7.10;99.90;;;;;;5091226;28;20039;-59
2021/12/25 01:40:13;;;;;;;2.70;2.50;;;7.20;99.90;;;;;;5091157;28;20692;-59
2021/12/25 01:48:15;;;;;;;2.80;2.30;;;7.20;99.90;;;;;;5090679;28;20030;-59
2021/12/25 01:50:41;;;;;;;2.67;2.47;;;7.20;99.90;;;;;;5090910;28;20024;-59
2021/12/25 01:53:07;;;;;;;3.05;2.80;;;7.30;99.90;;;;;;5090295;28;20020;-59
2021/12/25 01:55:34;;;;;;;5.20;3.17;;;7.30;99.90;;;;;;5090411;28;20052;-59
2021/12/25 01:58:02;;;;;;;3.20;3.00;;;7.30;99.90;;;;;;5090842;28;20027;-59
2021/12/25 02:00:40;;;;;;;2.90;2.70;;;7.30;99.90;;;;;;5090206;28;20292;-59
2021/12/25 02:03:10;;;;;;;3.10;2.90;;;7.30;99.90;;;;;;5090482;28;20085;-59
2021/12/25 02:05:37;;;;;;;7.55;4.55;;;7.30;99.90;;;;;;5090619;28;20441;-59
2021/12/25 02:08:03;;;;;;;19.67;12.27;;;7.30;99.90;;;;;;5089825;28;20073;-59
2021/12/25 02:10:29;;;;;;;10.55;6.43;;;7.30;99.90;;;;;;5090438;28;20024;-59
2021/12/25 02:12:55;;;;;;;48.10;21.52;;;7.30;99.90;;;;;;5072472;28;20031;-59
2021/12/25 02:15:24;;;;;;;5.80;3.60;;;7.20;99.90;;;;;;5090225;28;20024;-60
2021/12/25 02:20:26;;;;;;;3.50;3.30;;;7.30;99.90;;;;;;5090493;28;20567;-59
2021/12/25 02:22:59;;;;;;;3.75;3.38;;;7.40;99.90;;;;;;5070994;28;20509;-59
2021/12/25 02:25:25;;;;;;;15.75;6.47;;;7.30;99.90;;;;;;5057527;28;20467;-60
2021/12/25 02:27:51;;;;;;;4.38;2.85;;;7.30;99.90;;;;;;5070459;28;20024;-59
2021/12/25 02:30:16;;;;;;;2.80;2.60;;;7.30;99.90;;;;;;5052110;28;20069;-59
2021/12/25 02:32:46;;;;;;;3.50;3.20;;;7.30;99.90;;;;;;5070062;28;20107;-60
2021/12/25 02:35:13;;;;;;;15.57;5.13;;;7.30;99.90;;;;;;5069936;28;20035;-59
2021/12/25 02:37:40;;;;;;;3.70;3.40;;;7.30;99.90;;;;;;5052321;28;20021;-59
2021/12/25 02:40:10;;;;;;;3.08;2.88;;;7.20;99.90;;;;;;5064888;28;20132;-59
2021/12/25 02:42:35;;;;;;;3.33;2.65;;;7.20;99.90;;;;;;5089994;28;20028;-60
2021/12/25 02:45:03;;;;;;;3.58;3.28;;;7.20;99.90;;;;;;5090276;28;20335;-59
2021/12/25 02:47:30;;;;;;;5.90;4.05;;;7.30;99.90;;;;;;5090050;28;20116;-59
2021/12/25 02:49:57;;;;;;;2.80;2.60;;;7.20;99.90;;;;;;5089995;28;20146;-59
2021/12/25 02:52:23;;;;;;;4.07;3.45;;;7.20;99.90;;;;;;5090161;28;20032;-59
2021/12/25 02:54:49;;;;;;;3.53;3.22;;;7.20;99.90;;;;;;5090084;28;20076;-59
2021/12/25 02:57:15;;;;;;;3.10;2.90;;;7.20;99.90;;;;;;5089491;28;20403;-59
2021/12/25 02:59:41;;;;;;;6.10;3.92;;;7.20;99.90;;;;;;5089766;28;20032;-59
2021/12/25 03:02:09;;;;;;;4.68;3.42;;;7.20;99.90;;;;;;5090000;28;20468;-59
2021/12/25 03:04:37;;;;;;;3.45;3.15;;;7.30;99.90;;;;;;5091282;28;20016;-59
2021/12/25 03:07:04;;;;;;;4.00;3.17;;;7.20;99.90;;;;;;5093686;28;20024;-59
2021/12/25 03:09:29;;;;;;;65.15;28.65;;;7.30;99.90;;;;;;5093309;28;20111;-59
2021/12/25 03:11:55;;;;;;;9.95;6.35;;;7.20;99.90;;;;;;5093800;28;20110;-59
2021/12/25 03:14:37;;;;;;;5.18;3.88;;;7.30;99.90;;;;;;5093791;28;20028;-59
2021/12/25 03:17:04;;;;;;;11.25;6.82;;;7.20;99.90;;;;;;5075653;28;20032;-59
2021/12/25 03:19:34;;;;;;;10.93;7.47;;;7.20;99.90;;;;;;5093475;28;20360;-59
2021/12/25 03:22:01;;;;;;;16.52;7.90;;;7.10;99.90;;;;;;5093369;28;20032;-59
2021/12/25 03:24:28;;;;;;;11.77;6.45;;;7.20;99.90;;;;;;5093232;28;20335;-60
2021/12/25 03:26:56;;;;;;;5.97;4.38;;;7.20;99.90;;;;;;5075335;28;20085;-60
2021/12/25 03:29:23;;;;;;;3.42;3.13;;;7.20;99.90;;;;;;5093084;28;20104;-60
2021/12/25 03:31:50;;;;;;;3.10;2.80;;;7.30;99.90;;;;;;5093468;28;20012;-60
2021/12/25 03:34:16;;;;;;;2.75;2.55;;;7.40;99.90;;;;;;5093238;28;20021;-60
2021/12/25 03:36:41;;;;;;;3.63;2.92;;;7.40;99.90;;;;;;5093182;28;20024;-60
2021/12/25 03:39:07;;;;;;;2.65;2.47;;;7.30;99.90;;;;;;5093052;28;20517;-60
2021/12/25 03:41:34;;;;;;;2.88;2.67;;;7.40;99.90;;;;;;5093338;28;20031;-60
2021/12/25 03:44:00;;;;;;;6.93;3.17;;;7.30;99.90;;;;;;5092922;28;20786;-60
2021/12/25 03:46:28;;;;;;;3.78;2.90;;;7.30;99.90;;;;;;5092947;28;20081;-60
2021/12/25 03:59:17;;;;;;;4.70;3.03;;;7.30;99.90;;;;;;5092952;28;20081;-60
2021/12/25 04:01:49;;;;;;;2.97;2.78;;;7.20;99.90;;;;;;5074841;28;20052;-60
2021/12/25 04:04:25;;;;;;;3.10;2.83;;;7.20;99.90;;;;;;5074459;28;20020;-60
2021/12/25 04:07:19;;;;;;;3.00;2.70;;;7.20;99.90;;;;;;5092293;28;20028;-60
2021/12/25 04:09:46;;;;;;;4.05;3.70;;;7.20;99.90;;;;;;5092732;28;20095;-60
2021/12/25 04:12:13;;;;;;;2.85;2.65;;;7.20;99.90;;;;;;5092473;28;20129;-60
2021/12/25 04:14:40;;;;;;;3.33;3.10;;;7.20;99.90;;;;;;5092484;28;20489;-60
2021/12/25 04:17:06;;;;;;;2.95;2.75;;;7.20;99.90;;;;;;5092417;28;20024;-60
2021/12/25 04:19:32;;;;;;;3.30;3.08;;;7.10;99.90;;;;;;5073898;28;20364;-60
2021/12/25 04:22:06;;;;;;;2.90;2.70;;;7.10;99.90;;;;;;5092724;28;20367;-60
2021/12/25 04:24:35;;;;;;;;;;;7.00;99.90;;;;;;5092722;28;20070;-60
2021/12/25 04:27:01;;;;;;;3.47;3.08;;;7.00;99.90;;;;;;5092087;28;20381;-60
2021/12/25 04:47:47;;;;;;;3.58;3.28;;;6.90;99.90;;;;;;5092307;28;20402;-60
2021/12/25 05:02:25;;;;;;;4.07;3.53;;;6.80;99.90;;;;;;5091782;28;20116;-60
2021/12/25 05:04:57;;;;;;;8.25;5.00;;;6.90;99.90;;;;;;5073719;28;20474;-60
2021/12/25 05:07:23;;;;;;;22.17;5.93;;;6.90;99.90;;;;;;5091315;28;20028;-60
2021/12/25 05:09:48;;;;;;;5.80;4.30;;;7.00;99.90;;;;;;5091480;28;20379;-60
2021/12/25 05:12:14;;;;;;;6.68;3.92;;;7.00;99.90;;;;;;5091298;28;20035;-60
2021/12/25 05:14:40;;;;;;;4.25;3.10;;;7.00;99.90;;;;;;5091394;28;20020;-60
2021/12/25 05:17:07;;;;;;;18.23;11.20;;;7.00;99.90;;;;;;5091230;28;20115;-60
2021/12/25 05:19:33;;;;;;;11.40;7.75;;;7.00;99.90;;;;;;5091185;28;20020;-60
2021/12/25 05:21:59;;;;;;;7.03;6.30;;;7.00;99.90;;;;;;5091249;28;20020;-60
2021/12/25 05:24:27;;;;;;;5.40;4.97;;;7.00;99.90;;;;;;5090925;28;20364;-60
2021/12/25 05:26:56;;;;;;;7.18;4.80;;;6.90;99.90;;;;;;5090699;28;20030;-60
2021/12/25 05:29:24;;;;;;;4.55;4.05;;;6.90;99.90;;;;;;5091113;28;20056;-60
2021/12/25 05:31:51;;;;;;;8.80;4.50;;;6.90;99.90;;;;;;5090910;28;20085;-60
2021/12/25 05:34:17;;;;;;;5.30;4.80;;;6.90;99.90;;;;;;5090924;28;20017;-60
2021/12/25 05:36:43;;;;;;;4.47;3.75;;;6.90;99.90;;;;;;5091246;28;20432;-60
2021/12/25 05:39:12;;;;;;;4.70;4.13;;;6.90;99.90;;;;;;5090853;28;20052;-60
2021/12/25 05:41:38;;;;;;;4.47;4.07;;;6.90;99.90;;;;;;5090808;28;20115;-60
2021/12/25 05:44:04;;;;;;;6.35;4.55;;;6.80;99.90;;;;;;5090990;28;20032;-60
2021/12/25 05:46:30;;;;;;;5.13;4.07;;;6.80;99.90;;;;;;5090547;28;20028;-60
2021/12/25 05:48:55;;;;;;;5.35;4.20;;;6.70;99.90;;;;;;5090515;28;20081;-60
2021/12/25 05:51:21;;;;;;;6.28;4.03;;;6.70;99.90;;;;;;5090493;28;20024;-60
2021/12/25 05:53:47;;;;;;;4.93;4.43;;;6.60;99.90;;;;;;5090821;28;20021;-60
2021/12/25 05:56:14;;;;;;;7.35;5.43;;;6.60;99.90;;;;;;5090597;28;20031;-60
2021/12/25 05:58:39;;;;;;;6.72;4.90;;;6.50;99.90;;;;;;5090594;28;20028;-60
2021/12/25 06:01:06;;;;;;;5.13;4.68;;;6.50;99.90;;;;;;5090631;28;20031;-60
2021/12/25 06:03:32;;;;;;;5.53;4.30;;;6.50;99.90;;;;;;5090958;28;20024;-60
2021/12/25 06:05:58;;;;;;;5.75;4.22;;;6.40;99.90;;;;;;5089880;28;20039;-60
2021/12/25 06:08:29;;;;;;;5.05;4.55;;;6.40;99.90;;;;;;5090302;28;20255;-60
2021/12/25 06:10:55;;;;;;;5.72;3.95;;;6.40;99.90;;;;;;5072485;28;20020;-60
2021/12/25 06:13:22;;;;;;;6.07;3.88;;;6.50;99.90;;;;;;5090179;28;20035;-60
2021/12/25 06:15:49;;;;;;;4.70;4.30;;;6.50;99.90;;;;;;5090157;28;20064;-60
2021/12/25 06:18:15;;;;;;;4.47;4.07;;;6.60;99.90;;;;;;5090193;28;20035;-60
2021/12/25 06:20:41;;;;;;;6.15;4.22;;;6.60;99.90;;;;;;5090355;28;20028;-60
2021/12/25 06:23:07;;;;;;;39.88;28.02;;;6.60;99.90;;;;;;5090639;28;20032;-60
2021/12/25 06:25:33;;;;;;;13.23;11.82;;;6.60;99.90;;;;;;5090064;28;20086;-60
2021/12/25 06:27:59;;;;;;;10.25;8.57;;;6.60;99.90;;;;;;5072361;28;20425;-60
2021/12/25 06:30:25;;;;;;;7.70;5.25;;;6.60;99.90;;;;;;5071841;28;20459;-60
2021/12/25 06:32:50;;;;;;;7.05;6.35;;;6.60;99.90;;;;;;5091479;28;20025;-60
2021/12/25 06:35:16;;;;;;;6.45;5.85;;;6.50;99.90;;;;;;5091346;28;20096;-60
2021/12/25 06:37:45;;;;;;;13.23;7.40;;;6.50;99.90;;;;;;5091236;28;20058;-60
2021/12/25 06:40:18;;;;;;;10.27;7.78;;;6.40;99.90;;;;;;5092262;28;20026;-60
2021/12/25 06:42:45;;;;;;;11.18;8.40;;;6.40;99.90;;;;;;5094390;28;20026;-59
2021/12/25 06:45:11;;;;;;;6.18;5.47;;;6.30;99.90;;;;;;5093891;28;20028;-60
2021/12/25 06:47:37;;;;;;;7.03;6.28;;;6.30;99.90;;;;;;5094247;28;20073;-59
2021/12/25 06:50:07;;;;;;;8.57;6.28;;;6.30;99.90;;;;;;5094684;28;20028;-60
2021/12/25 06:52:33;;;;;;;6.10;5.13;;;6.20;99.90;;;;;;5094415;28;20043;-60
2021/12/25 06:54:59;;;;;;;6.32;5.70;;;6.20;99.90;;;;;;5093195;28;20126;-60
2021/12/25 06:57:25;;;;;;;39.13;17.00;;;6.20;99.90;;;;;;5092608;28;20099;-59
2021/12/25 06:59:50;;;;;;;125.43;58.53;;;6.20;99.90;;;;;;5075505;28;20064;-59
2021/12/25 07:02:16;;;;;;;58.80;28.00;;;6.20;99.90;;;;;;5093580;28;20028;-59
2021/12/25 07:04:42;;;;;;;36.78;15.93;;;6.20;99.90;;;;;;5093727;28;20107;-59
2021/12/25 07:07:07;;;;;;;12.93;7.57;;;6.10;99.90;;;;;;5075406;28;20546;-59
2021/12/25 07:09:33;;;;;;;6.43;5.20;;;6.00;99.90;;;;;;5093800;28;20021;-60
2021/12/25 07:11:59;;;;;;;7.93;4.25;;;5.90;99.90;;;;;;5093550;28;20032;-60
2021/12/25 07:14:25;;;;;;;6.35;5.03;;;5.90;99.90;;;;;;5075086;28;20442;-60
2021/12/25 07:16:51;;;;;;;5.00;4.53;;;5.90;99.90;;;;;;5075474;28;20391;-60
2021/12/25 07:19:17;;;;;;;5.30;4.90;;;5.90;99.90;;;;;;5093384;28;20024;-60
2021/12/25 07:21:43;;;;;;;6.15;4.70;;;5.80;99.90;;;;;;5093850;28;20054;-60
2021/12/25 07:24:11;;;;;;;5.85;5.35;;;5.80;99.90;;;;;;5093809;28;20161;-60
2021/12/25 07:26:38;;;;;;;8.75;6.05;;;5.80;99.90;;;;;;5093709;28;20036;-59
2021/12/25 07:29:04;;;;;;;8.40;7.55;;;5.70;99.90;;;;;;5094223;28;20031;-59
2021/12/25 07:31:30;;;;;;;12.35;8.55;;;5.80;99.90;;;;;;5074190;28;20020;-60
2021/12/25 07:33:55;;;;;;;11.13;8.15;;;5.70;99.90;;;;;;5093951;28;20455;-59
2021/12/25 07:36:23;;;;;;;10.38;9.05;;;5.80;99.90;;;;;;5092692;28;20024;-60
2021/12/25 07:38:49;;;;;;;8.43;7.43;;;5.80;99.90;;;;;;5092313;28;20485;-60
2021/12/25 07:41:15;;;;;;;11.25;8.02;;;5.80;99.90;;;;;;5092914;28;20027;-60
2021/12/25 07:43:41;;;;;;;9.18;7.95;;;5.80;99.90;;;;;;5093700;28;20457;-60
2021/12/25 07:46:06;;;;;;;8.98;7.80;;;5.80;99.90;;;;;;5093183;28;20467;-60
2021/12/25 07:48:34;;;;;;;19.58;12.77;;;5.80;99.90;;;;;;5093357;28;20067;-60
2021/12/25 07:51:02;;;;;;;13.60;12.05;;;5.90;99.90;;;;;;5093157;28;20445;-60
2021/12/25 07:53:30;;;;;;;17.38;12.18;;;5.90;99.90;;;;;;5093397;28;20123;-60
2021/12/25 07:55:56;;;;;;;10.02;8.18;;;5.90;99.90;;;;;;5093256;28;20046;-60
2021/12/25 07:58:22;;;;;;;10.50;8.77;;;6.00;99.90;;;;;;5093852;28;20031;-60
2021/12/25 08:00:48;;;;;;;8.45;7.60;;;6.00;99.90;;;;;;5093883;28;20028;-60
2021/12/25 08:03:16;;;;;;;22.67;8.57;;;6.00;99.90;;;;;;5075593;28;20035;-60
2021/12/25 08:05:42;;;;;;;30.05;8.43;;;6.00;99.90;;;;;;5093906;28;20059;-60
2021/12/25 08:08:10;;;;;;;18.35;9.02;;;5.90;99.90;;;;;;5092919;28;20023;-60
2021/12/25 08:10:36;;;;;;;15.02;10.73;;;6.00;99.90;;;;;;5092008;28;20441;-60
2021/12/25 08:13:02;;;;;;;10.75;8.93;;;6.10;99.90;;;;;;5092798;28;20028;-60
2021/12/25 08:15:29;;;;;;;10.38;9.27;;;6.20;99.90;;;;;;5092652;28;20032;-59
2021/12/25 08:17:57;;;;;;;22.52;8.40;;;6.20;99.90;;;;;;5091557;28;20028;-60
2021/12/25 08:20:24;;;;;;;10.43;7.60;;;6.20;99.90;;;;;;5092270;28;20244;-60
2021/12/25 08:22:50;;;;;;;8.48;7.30;;;6.30;99.90;;;;;;5092501;28;20502;-60
2021/12/25 08:25:25;;;;;;;11.55;7.35;;;6.40;99.90;;;;;;5074862;28;20391;-60
2021/12/25 08:27:51;;;;;;;14.07;7.80;;;6.50;99.90;;;;;;5093233;28;20441;-60
2021/12/25 08:30:20;;;;;;;10.25;7.72;;;6.40;99.90;;;;;;5089949;28;20024;-61
2021/12/25 08:32:46;;;;;;;11.95;8.23;;;6.40;99.90;;;;;;5090266;28;20016;-60
2021/12/25 08:35:14;;;;;;;9.38;7.57;;;6.40;99.90;;;;;;5089605;28;20133;-60
2021/12/25 08:37:41;;;;;;;10.32;7.38;;;6.50;99.90;;;;;;5089945;28;20012;-60
2021/12/25 08:40:08;;;;;;;8.60;6.82;;;6.60;99.90;;;;;;5091323;28;20153;-60
2021/12/25 08:42:34;;;;;;;10.52;8.85;;;6.70;99.90;;;;;;5090302;28;20391;-60
2021/12/25 08:47:30;;;;;;;8.30;5.55;;;6.80;99.90;;;;;;5093034;28;20119;-60
2021/12/25 08:49:57;;;;;;;6.95;4.35;;;7.00;99.90;;;;;;5091699;28;20020;-60
2021/12/25 08:52:25;;;;;;;4.60;4.20;;;7.20;99.90;;;;;;5091660;28;20032;-60
2021/12/25 08:54:52;;;;;;;6.55;5.45;;;7.20;99.90;;;;;;5090867;28;20040;-60
2021/12/25 08:57:20;;;;;;;5.65;4.95;;;7.20;99.90;;;;;;5091364;28;20471;-60
2021/12/25 08:59:47;;;;;;;20.70;15.98;;;7.20;99.90;;;;;;5091850;28;20082;-60
2021/12/25 09:02:15;;;;;;;45.35;18.65;;;7.20;99.90;;;;;;5072399;28;20433;-60
2021/12/25 09:04:44;;;;;;;21.58;8.27;;;7.20;99.90;;;;;;5091176;28;20556;-60
2021/12/25 09:07:10;;;;;;;5.15;4.15;;;7.20;99.90;;;;;;5091454;28;20028;-60
2021/12/25 09:09:36;;;;;;;16.48;7.30;;;7.30;99.90;;;;;;5091314;28;20057;-60
2021/12/25 09:12:04;;;;;;;13.95;7.50;;;7.40;99.90;;;;;;5091449;28;20069;-59
2021/12/25 09:14:30;;;;;;;12.23;8.63;;;7.50;99.90;;;;;;5091315;28;20035;-60
2021/12/25 09:16:56;;;;;;;5.10;3.58;;;7.50;99.90;;;;;;5091533;28;20390;-60
2021/12/25 09:19:22;;;;;;;3.97;3.53;;;7.60;99.90;;;;;;5090844;28;20024;-60
2021/12/25 09:21:47;;;;;;;12.50;7.47;;;7.70;99.90;;;;;;5091290;28;20421;-59
2021/12/25 09:24:15;;;;;;;4.80;4.18;;;7.70;99.90;;;;;;5091022;28;20035;-60
2021/12/25 09:26:41;;;;;;;5.85;4.75;;;7.60;99.90;;;;;;5091312;28;20531;-59
2021/12/25 09:29:07;;;;;;;4.38;3.17;;;7.70;99.90;;;;;;5091104;28;20119;-60
2021/12/25 09:31:33;;;;;;;3.90;3.58;;;7.70;99.90;;;;;;5091765;28;20047;-60
2021/12/25 09:33:59;;;;;;;9.68;4.82;;;7.60;99.90;;;;;;5092226;28;20098;-60
2021/12/25 09:36:26;;;;;;;3.78;3.30;;;7.60;99.90;;;;;;5091891;28;20098;-60
2021/12/25 09:38:52;;;;;;;24.08;7.07;;;7.60;99.90;;;;;;5092380;28;20035;-60
2021/12/25 09:41:18;;;;;;;3.33;3.03;;;7.50;99.90;;;;;;5073764;28;20405;-60
2021/12/25 09:43:48;;;;;;;5.03;3.92;;;7.60;99.90;;;;;;5092269;28;20077;-59
2021/12/25 09:46:16;;;;;;;6.07;4.72;;;7.60;99.90;;;;;;5091834;28;20085;-60
2021/12/25 09:48:41;;;;;;;5.85;4.38;;;7.60;99.90;;;;;;5092260;28;20055;-59
2021/12/25 09:51:08;;;;;;;12.70;7.38;;;7.60;99.90;;;;;;5091753;28;20505;-59
2021/12/25 09:53:34;;;;;;;5.78;4.45;;;7.60;99.90;;;;;;5090918;28;20103;-59
2021/12/25 09:56:02;;;;;;;11.15;5.20;;;7.70;99.90;;;;;;5090561;28;20143;-59
2021/12/25 09:58:28;;;;;;;8.95;5.15;;;7.70;99.90;;;;;;5072349;28;20095;-60
2021/12/25 10:00:57;;;;;;;5.95;3.90;;;7.70;99.90;;;;;;5089775;28;20024;-60
2021/12/25 10:03:24;;;;;;;4.70;4.20;;;7.90;99.90;;;;;;5090751;28;20024;-60
2021/12/25 10:05:51;;;;;;;50.10;18.63;;;7.90;99.90;;;;;;5091318;28;20114;-58
2021/12/25 10:08:17;;;;;;;223.30;61.30;;;7.90;99.90;;;;;;5091538;28;20130;-59
2021/12/25 10:10:56;;;;;;;65.25;21.65;;;7.90;99.90;;;;;;5091456;28;20110;-58
2021/12/25 10:13:31;;;;;;;109.70;35.70;;;7.90;99.90;;;;;;5091213;28;20020;-60
2021/12/25 10:16:19;;;;;;;7.60;4.50;;;7.90;99.90;;;;;;5091286;28;20065;-57
2021/12/25 10:18:45;;;;;;;20.48;12.30;;;8.00;99.90;;;;;;5091122;28;20028;-59
2021/12/25 10:21:29;;;;;;;4.03;3.25;;;8.20;99.90;;;;;;5091253;28;20043;-59
2021/12/25 10:24:13;;;;;;;8.82;5.45;;;8.40;99.90;;;;;;5091359;28;20073;-60
2021/12/25 10:26:40;;;;;;;7.75;5.30;;;8.50;99.90;;;;;;5091392;28;20044;-59
2021/12/25 10:29:28;;;;;;;5.10;4.13;;;8.40;99.90;;;;;;5091011;28;20378;-60
2021/12/25 10:31:59;;;;;;;4.75;3.30;;;8.50;99.90;;;;;;5072985;28;20517;-60
2021/12/25 10:34:27;;;;;;;6.88;4.82;;;8.50;99.90;;;;;;5090644;28;20036;-59
2021/12/25 10:36:54;;;;;;;5.32;3.90;;;8.60;99.90;;;;;;5090944;28;20020;-59
2021/12/25 10:39:27;;;;;;;6.75;4.18;;;8.70;99.90;;;;;;5090537;28;20065;-59
2021/12/25 10:41:55;;;;;;;14.95;5.88;;;8.80;99.90;;;;;;5090450;28;20097;-59
2021/12/25 10:44:27;;;;;;;12.13;8.20;;;8.90;99.90;;;;;;5090400;28;20039;-61
2021/12/25 10:46:55;;;;;;;85.72;49.90;;;8.90;99.90;;;;;;5091203;28;20332;-59
2021/12/25 10:49:26;;;;;;;38.78;21.70;;;9.10;99.90;;;;;;5090844;28;20035;-60
2021/12/25 10:51:52;;;;;;;28.05;15.25;;;9.30;99.90;;;;;;5091331;28;20051;-58
2021/12/25 10:54:19;;;;;;;19.50;10.80;;;9.20;99.90;;;;;;5090839;28;20633;-59
2021/12/25 10:56:48;;;;;;;81.72;46.97;;;9.20;99.90;;;;;;5091329;28;20016;-59
2021/12/25 10:59:16;;;;;;;29.27;20.05;;;9.20;99.90;;;;;;5090698;28;20093;-59
2021/12/25 11:01:49;;;;;;;11.20;8.45;;;9.40;99.90;;;;;;5091000;28;20028;-59
2021/12/25 11:04:36;;;;;;;6.43;4.47;;;9.40;99.90;;;;;;5090541;28;20037;-59
2021/12/25 11:07:16;;;;;;;15.73;9.30;;;9.60;99.90;;;;;;5091048;28;20038;-60
2021/12/25 11:10:03;;;;;;;4.43;4.03;;;9.90;99.90;;;;;;5090992;28;20392;-59
2021/12/25 11:12:30;;;;;;;7.03;5.00;;;10.00;99.90;;;;;;5090116;28;20046;-59
2021/12/25 11:15:10;;;;;;;3.38;3.08;;;9.90;99.90;;;;;;5060588;28;20055;-59
2021/12/25 11:17:39;;;;;;;6.57;5.00;;;10.00;99.90;;;;;;5070193;28;20025;-60
2021/12/25 11:20:06;;;;;;;6.05;3.97;;;10.00;99.90;;;;;;5070302;28;20609;-59
2021/12/25 11:22:53;;;;;;;11.68;5.28;;;10.00;99.90;;;;;;5070536;28;20043;-59
2021/12/25 11:25:22;;;;;;;6.65;4.78;;;10.00;99.90;;;;;;5090301;28;20020;-59
2021/12/25 11:27:49;;;;;;;19.38;10.20;;;9.80;99.90;;;;;;5075641;28;20550;-59
2021/12/25 11:30:15;;;;;;;3.97;3.25;;;9.60;99.90;;;;;;5093877;28;20459;-58
2021/12/25 11:32:41;;;;;;;3.92;3.40;;;9.70;99.90;;;;;;5093925;28;20024;-59
2021/12/25 11:35:09;;;;;;;13.68;7.32;;;9.80;99.90;;;;;;5093724;28;20020;-59
2021/12/25 11:37:35;;;;;;;5.68;2.80;;;9.70;99.90;;;;;;5094219;28;20061;-59
2021/12/25 11:40:01;;;;;;;24.40;10.35;;;9.70;99.90;;;;;;5094093;28;20043;-59
2021/12/25 11:42:29;;;;;;;4.57;3.83;;;9.70;99.90;;;;;;5093912;28;20060;-59
2021/12/25 11:44:55;;;;;;;3.58;3.28;;;9.60;99.90;;;;;;5093701;28;20037;-59
2021/12/25 11:47:33;;;;;;;33.28;15.77;;;9.60;99.90;;;;;;5093775;28;20028;-58
2021/12/25 11:50:03;;;;;;;29.85;15.05;;;9.50;99.90;;;;;;5094025;28;20446;-59
2021/12/25 11:52:35;;;;;;;44.38;21.55;;;9.30;99.90;;;;;;5093850;28;20024;-58
2021/12/25 11:58:37;;;;;;;13.98;8.38;;;9.40;99.90;;;;;;5093920;28;20439;-59
2021/12/25 12:01:19;;;;;;;4.93;3.40;;;9.30;99.90;;;;;;5055583;28;20537;-59
2021/12/25 12:04:06;;;;;;;13.63;8.80;;;9.40;99.90;;;;;;5073390;28;20031;-59
2021/12/25 12:06:44;;;;;;;15.70;9.10;;;9.40;99.90;;;;;;5060038;28;20388;-58
2021/12/25 12:09:21;;;;;;;30.83;17.63;;;9.30;99.90;;;;;;5093709;28;20105;-59
2021/12/25 12:12:09;;;;;;;6.22;5.03;;;9.30;99.90;;;;;;5093456;28;20111;-59
2021/12/25 12:14:36;;;;;;;6.68;4.50;;;9.40;99.90;;;;;;5093399;28;20032;-59
2021/12/25 12:17:05;;;;;;;8.38;4.07;;;9.40;99.90;;;;;;5093557;28;20647;-59
2021/12/25 12:19:38;;;;;;;7.90;4.95;;;9.50;99.90;;;;;;5093406;28;20036;-59
2021/12/25 12:22:21;;;;;;;6.13;5.03;;;9.50;99.90;;;;;;5093526;28;20071;-59
2021/12/25 12:27:35;;;;;;;4.18;2.92;;;9.40;99.90;;;;;;5072844;28;20036;-58
2021/12/25 12:30:06;;;;;;;5.65;2.78;;;9.40;99.90;;;;;;5078637;28;20022;-58
2021/12/25 12:32:35;;;;;;;3.25;2.95;;;9.30;99.90;;;;;;5093250;28;20035;-59
2021/12/25 12:35:04;;;;;;;4.40;2.92;;;9.20;99.90;;;;;;5092821;28;20375;-58
2021/12/25 12:37:32;;;;;;;4.05;2.90;;;9.20;99.90;;;;;;5092950;28;20029;-59
2021/12/25 12:40:04;;;;;;;2.97;2.63;;;9.20;99.90;;;;;;5092859;28;20024;-58
2021/12/25 12:42:42;;;;;;;5.90;2.80;;;9.30;99.90;;;;;;5093034;28;20406;-59
2021/12/25 12:45:19;;;;;;;2.60;2.40;;;9.30;99.90;;;;;;5092838;28;20020;-59
2021/12/25 12:48:10;;;;;;;4.68;3.17;;;9.40;99.90;;;;;;5092928;28;20111;-58
2021/12/25 12:50:39;;;;;;;3.50;2.50;;;9.40;99.90;;;;;;5081838;28;20153;-59
2021/12/25 12:53:07;;;;;;;3.17;2.83;;;9.30;99.90;;;;;;5093050;28;20367;-58
2021/12/25 12:55:35;;;;;;;3.00;2.70;;;9.30;99.90;;;;;;5092470;28;20043;-58
2021/12/25 12:58:27;;;;;;;3.08;2.63;;;9.30;99.90;;;;;;5092852;28;20499;-59
2021/12/25 13:00:58;;;;;;;2.80;2.60;;;9.20;99.90;;;;;;5092735;28;20035;-59
2021/12/25 13:03:26;;;;;;;3.60;2.80;;;9.10;99.90;;;;;;5092733;28;20102;-59
2021/12/25 13:06:03;;;;;;;20.23;8.63;;;9.10;99.90;;;;;;5092377;28;20020;-58
2021/12/25 13:08:32;;;;;;;3.42;3.13;;;9.10;99.90;;;;;;5092570;28;20896;-59
2021/12/25 13:11:09;;;;;;;4.35;3.08;;;9.10;99.90;;;;;;5092403;28;20103;-58
2021/12/25 13:13:46;;;;;;;4.20;3.10;;;9.10;99.90;;;;;;5092583;28;20019;-58
2021/12/25 13:16:15;;;;;;;3.42;3.13;;;9.10;99.90;;;;;;5092047;28;20024;-59
2021/12/25 13:18:46;;;;;;;26.10;14.63;;;9.10;99.90;;;;;;5092295;28;20110;-59
2021/12/25 13:21:15;;;;;;;10.07;7.05;;;9.10;99.90;;;;;;5091877;28;20654;-59
2021/12/25 13:23:53;;;;;;;3.60;3.30;;;9.10;99.90;;;;;;5073762;28;20343;-58
2021/12/25 13:26:34;;;;;;;26.52;14.13;;;9.10;99.90;;;;;;5091366;28;20028;-59
2021/12/25 13:29:03;;;;;;;6.00;3.38;;;9.00;99.90;;;;;;5091885;28;20107;-58
2021/12/25 13:31:32;;;;;;;3.50;3.20;;;9.10;99.90;;;;;;5073238;28;20032;-59
2021/12/25 13:34:02;;;;;;;24.58;18.60;;;9.10;99.90;;;;;;5091400;28;20359;-59
2021/12/25 13:36:33;;;;;;;8.20;7.40;;;9.10;99.90;;;;;;5091699;28;20028;-59
2021/12/25 13:39:04;;;;;;;3.50;3.00;;;9.10;99.90;;;;;;5090545;28;20046;-59
2021/12/25 13:41:33;;;;;;;3.50;3.20;;;9.10;99.90;;;;;;5071422;28;20029;-59
2021/12/25 13:44:16;;;;;;;3.90;3.50;;;9.10;99.90;;;;;;5071313;28;20083;-58
2021/12/25 13:46:51;;;;;;;19.20;11.48;;;9.10;99.90;;;;;;5071458;28;20021;-58
2021/12/25 13:49:33;;;;;;;20.85;13.13;;;9.00;99.90;;;;;;5071068;28;20021;-59
2021/12/25 13:52:04;;;;;;;8.88;5.97;;;8.90;99.90;;;;;;5079878;28;20451;-59
2021/12/25 13:54:30;;;;;;;4.22;3.83;;;8.90;99.90;;;;;;5091471;28;20055;-59
2021/12/25 13:56:57;;;;;;;3.95;3.25;;;8.90;99.90;;;;;;5091870;28;20024;-59
2021/12/25 13:59:24;;;;;;;5.32;3.97;;;8.80;99.90;;;;;;5073039;28;20509;-59
2021/12/25 14:02:07;;;;;;;5.70;3.75;;;8.80;99.90;;;;;;5073272;28;20024;-59
2021/12/25 14:04:35;;;;;;;4.32;3.92;;;8.70;99.90;;;;;;5073367;28;20471;-59
2021/12/25 14:07:00;;;;;;;9.23;6.97;;;8.70;99.90;;;;;;5091566;28;20031;-59
2021/12/25 14:09:27;;;;;;;5.53;4.85;;;8.70;99.90;;;;;;5091105;28;20024;-59
2021/12/25 14:11:55;;;;;;;3.20;2.90;;;8.70;99.90;;;;;;5091453;28;20032;-59
2021/12/25 14:14:22;;;;;;;6.85;3.08;;;8.70;99.90;;;;;;5090760;28;20375;-58
2021/12/25 14:16:49;;;;;;;3.85;3.40;;;8.80;99.90;;;;;;5091362;28;20025;-59
2021/12/25 14:19:15;;;;;;;4.53;3.83;;;8.70;99.90;;;;;;5091204;28;20069;-59
2021/12/25 14:21:56;;;;;;;6.60;3.55;;;8.60;99.90;;;;;;5090970;28;20454;-59
2021/12/25 14:24:22;;;;;;;3.55;3.17;;;8.50;99.90;;;;;;5069704;28;20059;-59
2021/12/25 14:26:48;;;;;;;4.43;3.10;;;8.60;99.90;;;;;;5091137;28;20492;-59